Wokal Field Glasgow International Airport Glasgow US
ICAO: KGGW
IATA: GGW
Category: Medium
Scheduled Services: Yes

Elevation: 2296 ft
TransAlt. 18000 ft.

Airport Communications:
ASOS:135.175
SALT LAKE CITY CNTR:126.85
GREAT FALLS RDO:122.25
CTAF/UNICOM:122.8

KGGW Zoom In..

If you have problems with the map follow the link
https://www.worldairports.se/pages/airport.php?
ICAO=KGGW

Runways:

(A) RW 08 length 5000 ft width 75 ft
---- / hdg 79

(B) RW 12 length 5002 ft width 100 ft
---- / hdg 123

(C) RW 26 length 5000 ft width 75 ft
---- / hdg 259

(D) RW 30 length 5002 ft width 100 ft
---- / hdg 303

Location; KGGW
Day. 29 / Time. 16.53 Zulu
* Altimeter: 30.08
* Temperature: -05° c. -23°f.
* Wind from: 310° Speed 09 kn.
Dewpoint: -09° c.
Visibility: 10 Statute Miles.
Clouds: Clear (automated report).

KGGW 291653Z AUTO 31009KT 10SM CLR M05/M09 A3008 RMK AO2 SLP219 T10501089


Wind From 310°
Speed 09 kn.

 
 
jpsmedia worldairports.se 2020   terms of use